Time;durP1;ratioP1;P1;durP2;ratioP2;P2;SDS_P1;SDS_P2;PMS_P1;PMS_P2;Temp;Humidity;BMP_temperature;BMP_pressure;BME280_temperature;BME280_humidity;BME280_pressure;Samples;Min_cycle;Max_cycle;Signal;HPM_P1;HPM_P2
2020/12/01 00:00:17;;;;;;;61.97;27.70;;;7.20;96.80;;;;;;5058275;28;20124;-72
2020/12/01 00:02:43;;;;;;;52.97;25.83;;;7.20;96.80;;;;;;5074765;28;20442;-72
2020/12/01 00:05:10;;;;;;;56.50;25.97;;;7.20;96.70;;;;;;5075986;28;20100;-72
2020/12/01 00:07:37;;;;;;;60.17;23.53;;;7.20;96.70;;;;;;5075955;28;20056;-72
2020/12/01 00:10:04;;;;;;;50.97;22.40;;;7.20;96.70;;;;;;5075025;28;20024;-72
2020/12/01 00:12:30;;;;;;;44.90;22.40;;;7.20;96.70;;;;;;5074609;28;20024;-73
2020/12/01 00:14:55;;;;;;;53.67;23.73;;;7.20;96.70;;;;;;5074504;28;20040;-73
2020/12/01 00:17:21;;;;;;;47.53;23.60;;;7.30;96.80;;;;;;5075770;28;20064;-73
2020/12/01 00:19:46;;;;;;;61.03;24.70;;;7.30;96.80;;;;;;5075784;28;20032;-74
2020/12/01 00:22:13;;;;;;;49.10;21.90;;;7.30;96.80;;;;;;5075818;28;20028;-73
2020/12/01 00:24:39;;;;;;;53.80;21.60;;;7.40;96.80;;;;;;5075812;28;20468;-73
2020/12/01 00:27:05;;;;;;;48.23;21.37;;;7.30;96.70;;;;;;5075588;28;20107;-73
2020/12/01 00:29:31;;;;;;;53.80;22.47;;;7.30;96.70;;;;;;5075577;28;20111;-73
2020/12/01 00:31:56;;;;;;;61.97;24.60;;;7.40;96.70;;;;;;5075631;28;20067;-73
2020/12/01 00:34:22;;;;;;;53.20;21.93;;;7.40;96.80;;;;;;5075717;28;20182;-73
2020/12/01 00:36:48;;;;;;;47.87;21.43;;;7.40;96.70;;;;;;5074249;28;20025;-72
2020/12/01 00:39:13;;;;;;;53.70;22.73;;;7.30;96.70;;;;;;5075447;28;20032;-72
2020/12/01 00:41:40;;;;;;;53.40;22.53;;;7.40;96.70;;;;;;5075251;28;20035;-72
2020/12/01 00:44:05;;;;;;;48.57;22.27;;;7.50;96.70;;;;;;5075198;28;20040;-73
2020/12/01 00:46:31;;;;;;;58.63;23.83;;;7.50;96.70;;;;;;5074222;28;20029;-73
2020/12/01 00:48:57;;;;;;;60.90;22.57;;;7.50;96.70;;;;;;5075288;28;20035;-73
2020/12/01 00:51:23;;;;;;;66.27;24.53;;;7.50;96.70;;;;;;5074158;28;20029;-73
2020/12/01 00:53:49;;;;;;;48.67;23.07;;;7.50;96.70;;;;;;5075267;28;20024;-72
2020/12/01 00:56:22;;;;;;;56.10;24.07;;;7.50;96.70;;;;;;5075120;28;20093;-73
2020/12/01 00:58:48;;;;;;;58.03;23.77;;;7.60;96.70;;;;;;5075406;28;20112;-73
2020/12/01 01:01:14;;;;;;;48.33;22.80;;;7.50;96.60;;;;;;5075061;28;20028;-73
2020/12/01 01:03:40;;;;;;;45.30;23.00;;;7.60;96.70;;;;;;5075279;28;20086;-73
2020/12/01 01:06:09;;;;;;;37.53;19.97;;;7.40;96.60;;;;;;5075066;28;20042;-73
2020/12/01 01:08:35;;;;;;;37.83;18.83;;;7.40;96.70;;;;;;5074968;28;20419;-74
2020/12/01 01:11:00;;;;;;;36.63;17.60;;;7.50;96.80;;;;;;5074806;28;20029;-73
2020/12/01 01:13:26;;;;;;;35.10;17.20;;;7.50;96.70;;;;;;5057159;28;20021;-74
2020/12/01 01:15:52;;;;;;;29.67;16.20;;;7.60;96.80;;;;;;5074770;28;20499;-73
2020/12/01 01:18:17;;;;;;;27.67;13.87;;;7.60;96.70;;;;;;5074504;28;20024;-73
2020/12/01 01:20:43;;;;;;;23.87;12.43;;;7.70;96.80;;;;;;5073303;28;20028;-73
2020/12/01 01:23:09;;;;;;;21.90;11.10;;;7.60;97.00;;;;;;5073186;28;20040;-73
2020/12/01 01:25:34;;;;;;;23.03;10.33;;;7.60;96.70;;;;;;5074650;28;20520;-72
2020/12/01 01:28:00;;;;;;;18.23;9.17;;;7.70;96.80;;;;;;5074522;28;20380;-72
2020/12/01 01:30:25;;;;;;;18.73;8.20;;;7.70;96.70;;;;;;5074612;28;20472;-73
2020/12/01 01:32:52;;;;;;;19.50;7.40;;;7.70;96.70;;;;;;5074718;28;20078;-73
2020/12/01 01:35:18;;;;;;;15.33;6.97;;;7.60;96.70;;;;;;5074211;28;20032;-73
2020/12/01 01:37:44;;;;;;;16.03;6.60;;;7.70;96.70;;;;;;5074459;28;20127;-73
2020/12/01 01:40:21;;;;;;;14.20;5.20;;;7.70;96.60;;;;;;5074026;28;20111;-73
2020/12/01 01:42:47;;;;;;;11.57;4.73;;;7.70;96.60;;;;;;5072822;28;20434;-73
2020/12/01 01:45:13;;;;;;;15.03;4.43;;;7.70;96.60;;;;;;5073887;28;20048;-72
2020/12/01 01:47:40;;;;;;;12.03;4.10;;;7.70;96.60;;;;;;5072904;28;20021;-72
2020/12/01 01:50:19;;;;;;;10.47;3.57;;;7.80;96.60;;;;;;5074123;28;20423;-72
2020/12/01 01:52:49;;;;;;;9.70;2.90;;;7.60;96.50;;;;;;5072765;28;20034;-72
2020/12/01 01:55:24;;;;;;;11.73;2.80;;;7.70;96.50;;;;;;5074184;28;20024;-73
2020/12/01 01:57:58;;;;;;;10.97;2.30;;;7.60;96.50;;;;;;5073939;28;20450;-72
2020/12/01 02:00:57;;;;;;;12.13;2.63;;;7.50;96.40;;;;;;5074070;28;20082;-72
2020/12/01 02:03:30;;;;;;;12.90;2.93;;;7.60;96.40;;;;;;5072497;28;20025;-72
2020/12/01 02:05:56;;;;;;;9.43;1.93;;;7.60;96.40;;;;;;5073834;28;20047;-72
2020/12/01 02:08:23;;;;;;;15.50;2.17;;;7.60;96.40;;;;;;5073787;28;20027;-72
2020/12/01 02:10:50;;;;;;;5.33;2.00;;;7.50;96.30;;;;;;5073699;28;20048;-72
2020/12/01 02:13:19;;;;;;;8.27;1.80;;;7.50;96.30;;;;;;5073622;28;20024;-72
2020/12/01 02:15:46;;;;;;;14.17;1.70;;;7.40;96.30;;;;;;5073780;28;20115;-71
2020/12/01 02:18:12;;;;;;;7.00;1.60;;;7.40;96.20;;;;;;5072268;28;20052;-72
2020/12/01 02:20:37;;;;;;;10.37;1.60;;;7.40;96.20;;;;;;5073779;28;20060;-72
2020/12/01 02:23:03;;;;;;;8.07;0.93;;;7.30;96.20;;;;;;5073540;28;20050;-72
2020/12/01 02:25:29;;;;;;;12.00;1.50;;;7.30;96.10;;;;;;5072508;28;20066;-72
2020/12/01 02:27:59;;;;;;;8.47;1.70;;;7.30;96.10;;;;;;5072517;28;20033;-72
2020/12/01 02:30:25;;;;;;;9.23;1.10;;;7.30;96.10;;;;;;5072083;28;20024;-72
2020/12/01 02:32:51;;;;;;;7.77;1.40;;;7.40;96.20;;;;;;5072920;28;20031;-72
2020/12/01 02:35:16;;;;;;;7.57;1.47;;;7.20;96.10;;;;;;5072035;28;20124;-72
2020/12/01 02:37:45;;;;;;;9.80;1.50;;;7.20;96.10;;;;;;5073393;28;20078;-72
2020/12/01 02:40:14;;;;;;;7.63;1.00;;;7.20;96.10;;;;;;5073209;28;20028;-72
2020/12/01 02:42:41;;;;;;;6.33;1.00;;;7.20;96.10;;;;;;5073409;28;20090;-72
2020/12/01 02:45:07;;;;;;;3.27;0.70;;;7.30;96.10;;;;;;5073309;28;20500;-72
2020/12/01 02:47:33;;;;;;;6.80;1.20;;;7.10;96.40;;;;;;5072082;28;20020;-72
2020/12/01 02:49:58;;;;;;;7.10;0.90;;;7.10;96.10;;;;;;5073379;28;20027;-72
2020/12/01 02:52:24;;;;;;;6.73;1.10;;;7.10;96.10;;;;;;5073432;28;20040;-72
2020/12/01 02:54:51;;;;;;;6.80;0.70;;;7.10;96.10;;;;;;5071909;28;20027;-72
2020/12/01 02:57:20;;;;;;;6.30;0.70;;;7.10;96.10;;;;;;5073274;28;20027;-72
2020/12/01 02:59:46;;;;;;;7.93;0.87;;;7.10;96.10;;;;;;5073149;28;20056;-72
2020/12/01 03:02:12;;;;;;;3.50;0.53;;;7.00;96.00;;;;;;5072885;28;20059;-72
2020/12/01 03:04:37;;;;;;;3.37;0.70;;;7.00;96.00;;;;;;5073092;28;20070;-72
2020/12/01 03:07:03;;;;;;;4.93;0.80;;;7.00;96.00;;;;;;5073164;28;20032;-72
2020/12/01 03:09:29;;;;;;;3.70;0.50;;;7.00;96.00;;;;;;5072051;28;20471;-72
2020/12/01 03:11:55;;;;;;;4.53;0.87;;;7.00;96.00;;;;;;5073065;28;20433;-72
2020/12/01 03:14:22;;;;;;;9.77;0.90;;;6.90;96.00;;;;;;5073128;28;20032;-80
2020/12/01 03:16:49;;;;;;;5.93;0.70;;;7.00;96.00;;;;;;5072023;28;20025;-81
2020/12/01 03:19:16;;;;;;;5.83;0.93;;;7.00;96.10;;;;;;5071827;28;20052;-80
2020/12/01 03:21:42;;;;;;;9.07;0.57;;;6.90;96.10;;;;;;5072958;28;20024;-80
2020/12/01 03:24:07;;;;;;;4.63;0.90;;;6.90;96.10;;;;;;5071653;28;20379;-80
2020/12/01 03:26:33;;;;;;;8.17;0.80;;;6.90;96.10;;;;;;5071789;28;20028;-81
2020/12/01 03:28:58;;;;;;;7.80;0.73;;;6.90;96.10;;;;;;5071785;28;20029;-80
2020/12/01 03:31:24;;;;;;;8.53;1.00;;;6.90;96.10;;;;;;5054851;28;20056;-81
2020/12/01 03:33:50;;;;;;;9.47;0.90;;;6.80;96.10;;;;;;5072843;28;20086;-81
2020/12/01 03:36:18;;;;;;;7.37;0.50;;;6.90;96.10;;;;;;5071647;28;20115;-80
2020/12/01 03:38:43;;;;;;;7.67;0.70;;;6.90;96.10;;;;;;5071638;28;20488;-80
2020/12/01 03:41:09;;;;;;;5.87;0.70;;;6.80;96.00;;;;;;5071493;28;20059;-81
2020/12/01 03:43:35;;;;;;;4.60;0.80;;;6.80;96.00;;;;;;5072739;28;20048;-72
2020/12/01 03:46:02;;;;;;;4.20;0.60;;;6.80;96.10;;;;;;5075889;28;20078;-72
2020/12/01 03:48:27;;;;;;;8.03;0.70;;;6.80;96.10;;;;;;5076395;28;20468;-71
2020/12/01 03:50:53;;;;;;;7.53;1.20;;;6.80;96.10;;;;;;5076288;28;20036;-71
2020/12/01 03:53:19;;;;;;;3.73;0.50;;;6.80;96.20;;;;;;5076176;28;20039;-72
2020/12/01 03:55:45;;;;;;;5.13;0.40;;;6.70;96.20;;;;;;5076185;28;20089;-72
2020/12/01 03:58:10;;;;;;;5.53;0.50;;;6.80;96.20;;;;;;5058384;28;20025;-71
2020/12/01 04:00:36;;;;;;;5.77;0.47;;;6.80;96.30;;;;;;5058311;28;20093;-72
2020/12/01 04:03:01;;;;;;;1.97;0.40;;;6.80;96.30;;;;;;5076234;28;20174;-72
2020/12/01 04:05:28;;;;;;;6.70;0.40;;;6.80;96.20;;;;;;5074784;28;20497;-72
2020/12/01 04:07:55;;;;;;;5.47;0.90;;;6.90;96.20;;;;;;5076050;28;20024;-71
2020/12/01 04:10:24;;;;;;;4.13;0.50;;;6.80;96.20;;;;;;5076130;28;20028;-72
2020/12/01 04:12:50;;;;;;;3.63;0.40;;;6.90;96.20;;;;;;5076342;28;20028;-72
2020/12/01 04:15:17;;;;;;;3.23;0.43;;;7.00;96.30;;;;;;5074840;28;20036;-72
2020/12/01 04:17:43;;;;;;;5.27;0.40;;;6.90;96.20;;;;;;5075825;28;20464;-71
2020/12/01 04:20:10;;;;;;;6.40;0.50;;;6.90;96.20;;;;;;5075947;28;20364;-72
2020/12/01 04:22:35;;;;;;;9.07;0.50;;;6.90;96.30;;;;;;5076159;28;20472;-72
2020/12/01 04:25:04;;;;;;;3.67;0.43;;;6.90;96.30;;;;;;5076126;28;20086;-71
2020/12/01 04:27:30;;;;;;;6.70;1.00;;;7.00;96.30;;;;;;5075978;28;20020;-71
2020/12/01 04:29:55;;;;;;;5.00;0.70;;;6.90;96.30;;;;;;5075528;28;20020;-71
2020/12/01 04:32:21;;;;;;;5.27;0.60;;;6.90;96.30;;;;;;5076204;28;20037;-72
2020/12/01 04:34:47;;;;;;;5.47;0.40;;;7.00;96.40;;;;;;5074436;28;20127;-72
2020/12/01 04:37:12;;;;;;;6.30;0.60;;;6.90;96.40;;;;;;5075409;28;20396;-72
2020/12/01 04:39:38;;;;;;;5.07;0.50;;;6.90;96.40;;;;;;5075794;28;20040;-72
2020/12/01 04:42:05;;;;;;;7.20;0.70;;;7.00;96.40;;;;;;5075468;28;20111;-72
2020/12/01 04:44:37;;;;;;;7.23;0.60;;;7.00;96.40;;;;;;5075329;28;20097;-72
2020/12/01 04:47:15;;;;;;;3.40;0.60;;;7.00;96.30;;;;;;5075606;28;20065;-72
2020/12/01 04:49:50;;;;;;;2.43;0.40;;;7.00;96.40;;;;;;5075197;28;20464;-72
2020/12/01 04:52:51;;;;;;;9.00;0.70;;;7.00;96.40;;;;;;5075293;28;20107;-72
2020/12/01 04:55:19;;;;;;;3.40;0.50;;;7.00;96.30;;;;;;5072329;28;20032;-72
2020/12/01 04:58:06;;;;;;;7.07;0.60;;;7.00;96.30;;;;;;5075135;28;20089;-72
2020/12/01 05:00:48;;;;;;;4.17;0.63;;;7.00;96.30;;;;;;5075204;28;20025;-72
2020/12/01 05:03:31;;;;;;;2.90;0.50;;;7.00;96.30;;;;;;5075114;28;20107;-72
2020/12/01 05:08:38;;;;;;;5.80;0.63;;;7.00;96.30;;;;;;5074982;28;20079;-72
2020/12/01 05:11:41;;;;;;;7.25;0.50;;;7.00;96.30;;;;;;5074878;28;20016;-72
2020/12/01 05:14:34;;;;;;;3.43;0.50;;;7.00;96.30;;;;;;5073608;28;20494;-72
2020/12/01 05:17:14;;;;;;;4.43;0.80;;;7.00;96.30;;;;;;5074947;28;20021;-72
2020/12/01 05:19:41;;;;;;;5.83;0.70;;;7.10;96.30;;;;;;5074656;28;20032;-72
2020/12/01 05:22:08;;;;;;;5.67;0.60;;;7.00;96.30;;;;;;5074458;28;20029;-72
2020/12/01 05:24:40;;;;;;;4.10;0.80;;;7.10;96.30;;;;;;5074714;28;20024;-72
2020/12/01 05:27:06;;;;;;;4.57;0.70;;;7.00;96.30;;;;;;5074409;28;20025;-72
2020/12/01 05:29:32;;;;;;;4.27;0.60;;;7.10;96.30;;;;;;5073478;28;20497;-72
2020/12/01 05:31:57;;;;;;;6.07;0.50;;;7.10;96.30;;;;;;5073171;28;20115;-72
2020/12/01 05:34:23;;;;;;;7.87;1.07;;;7.10;96.30;;;;;;5074364;28;20040;-72
2020/12/01 05:36:51;;;;;;;4.57;0.50;;;7.00;96.30;;;;;;5072254;28;20063;-72
2020/12/01 05:39:23;;;;;;;4.33;0.60;;;7.20;96.40;;;;;;5053662;28;20380;-73
2020/12/01 05:42:14;;;;;;;3.53;0.40;;;7.10;96.40;;;;;;5053135;28;20029;-73
2020/12/01 05:44:40;;;;;;;8.27;0.70;;;7.10;96.40;;;;;;5053771;28;20029;-73
2020/12/01 05:47:05;;;;;;;3.73;0.70;;;7.10;96.40;;;;;;5052161;28;20036;-73
2020/12/01 05:49:35;;;;;;;5.47;0.70;;;7.10;96.40;;;;;;5052614;28;20787;-73
2020/12/01 05:52:21;;;;;;;4.87;0.60;;;7.10;96.40;;;;;;5054172;28;20445;-74
2020/12/01 05:55:01;;;;;;;3.57;0.50;;;7.20;96.40;;;;;;5053900;28;20060;-73
2020/12/01 05:57:28;;;;;;;3.03;0.50;;;7.20;96.40;;;;;;5053771;28;20025;-73
2020/12/01 06:00:05;;;;;;;3.00;0.43;;;7.10;96.40;;;;;;5053793;28;20025;-73
2020/12/01 06:02:45;;;;;;;3.83;0.60;;;7.20;96.40;;;;;;5053567;28;20033;-74
2020/12/01 06:05:16;;;;;;;4.73;0.60;;;7.20;96.40;;;;;;5054158;28;20082;-73
2020/12/01 06:07:47;;;;;;;8.43;0.70;;;7.30;96.40;;;;;;5053188;28;20119;-73
2020/12/01 06:10:19;;;;;;;5.73;0.70;;;7.20;96.40;;;;;;5054035;28;20032;-73
2020/12/01 06:12:57;;;;;;;7.37;1.63;;;7.30;96.40;;;;;;5053712;28;20437;-73
2020/12/01 06:15:23;;;;;;;6.00;0.80;;;7.20;96.30;;;;;;5053617;28;20457;-73
2020/12/01 06:17:52;;;;;;;4.77;0.90;;;7.30;96.40;;;;;;5054022;28;20029;-73
2020/12/01 06:20:26;;;;;;;5.77;0.83;;;7.30;96.40;;;;;;5064645;28;20020;-73
2020/12/01 06:23:30;;;;;;;8.10;1.40;;;7.30;96.40;;;;;;5073403;28;20032;-73
2020/12/01 06:26:21;;;;;;;7.23;0.83;;;7.30;96.40;;;;;;5073589;28;20063;-74
2020/12/01 06:29:34;;;;;;;9.60;1.20;;;7.30;96.40;;;;;;5073617;28;20090;-73
2020/12/01 06:32:15;;;;;;;5.33;1.07;;;7.30;96.40;;;;;;5073391;28;20098;-72
2020/12/01 06:34:59;;;;;;;4.00;0.90;;;7.30;96.40;;;;;;5073346;28;20107;-73
2020/12/01 06:37:42;;;;;;;3.28;1.10;;;7.30;96.40;;;;;;5072168;28;20025;-73
2020/12/01 06:40:24;;;;;;;4.63;1.30;;;7.30;96.40;;;;;;5073501;28;20032;-73
2020/12/01 06:42:58;;;;;;;7.70;2.10;;;7.30;96.40;;;;;;5073239;28;20060;-73
2020/12/01 06:45:44;;;;;;;9.35;2.00;;;7.30;96.40;;;;;;5072089;28;20514;-74
2020/12/01 06:48:16;;;;;;;8.20;1.93;;;7.30;96.40;;;;;;5072508;28;20032;-73
2020/12/01 06:50:53;;;;;;;9.37;2.30;;;7.30;96.70;;;;;;5073328;28;20467;-73
2020/12/01 06:53:34;;;;;;;8.37;2.30;;;7.30;96.40;;;;;;5072238;28;20039;-73
2020/12/01 06:56:20;;;;;;;9.90;2.37;;;7.40;96.50;;;;;;5071991;28;20135;-81
2020/12/01 06:58:48;;;;;;;6.03;2.37;;;7.40;96.50;;;;;;5071835;28;20045;-81
2020/12/01 07:01:22;;;;;;;7.00;2.30;;;7.50;96.50;;;;;;5073535;28;20037;-80
2020/12/01 07:04:04;;;;;;;10.27;2.97;;;7.50;96.50;;;;;;5073112;28;20078;-80
2020/12/01 07:06:30;;;;;;;7.53;3.03;;;7.50;96.50;;;;;;5073101;28;20020;-81
2020/12/01 07:09:18;;;;;;;7.57;2.60;;;7.50;96.50;;;;;;5072886;28;20417;-80
2020/12/01 07:12:22;;;;;;;9.60;2.80;;;7.60;96.50;;;;;;5073018;28;20024;-80
2020/12/01 07:14:57;;;;;;;5.53;2.07;;;7.60;96.50;;;;;;5071428;28;20032;-80
2020/12/01 07:17:22;;;;;;;6.27;2.63;;;7.60;96.50;;;;;;5072861;28;20036;-79
2020/12/01 07:19:54;;;;;;;6.50;2.40;;;7.60;96.50;;;;;;5075985;28;20108;-81
2020/12/01 07:22:34;;;;;;;5.87;2.30;;;7.60;96.50;;;;;;5075279;28;20524;-81
2020/12/01 07:25:18;;;;;;;7.07;2.67;;;7.70;96.50;;;;;;5076756;28;20052;-81
2020/12/01 07:28:09;;;;;;;7.35;2.45;;;7.70;96.50;;;;;;5075646;28;20124;-80
2020/12/01 07:30:57;;;;;;;7.17;2.60;;;7.80;96.60;;;;;;5076676;28;20096;-81
2020/12/01 07:33:35;;;;;;;7.10;2.70;;;7.80;96.60;;;;;;5076884;28;20033;-80
2020/12/01 07:36:34;;;;;;;7.10;2.30;;;7.90;96.60;;;;;;5076641;28;20021;-80
2020/12/01 07:39:12;;;;;;;5.50;1.80;;;7.90;96.60;;;;;;5076522;28;20086;-81
2020/12/01 07:42:18;;;;;;;6.07;2.03;;;8.00;96.70;;;;;;5076553;28;20475;-79
2020/12/01 07:44:44;;;;;;;5.97;1.83;;;8.10;96.70;;;;;;5075965;28;20052;-80
2020/12/01 07:47:21;;;;;;;5.63;1.93;;;8.10;96.70;;;;;;5076627;28;20376;-78
2020/12/01 07:50:01;;;;;;;4.40;1.33;;;8.20;96.70;;;;;;5076426;28;20481;-79
2020/12/01 07:52:48;;;;;;;3.40;1.10;;;8.20;96.70;;;;;;5076292;28;20460;-80
2020/12/01 07:55:37;;;;;;;3.47;0.93;;;8.30;96.70;;;;;;5075183;28;20055;-79
2020/12/01 07:58:10;;;;;;;5.10;0.70;;;8.30;96.70;;;;;;5074983;28;20074;-79
2020/12/01 08:00:37;;;;;;;2.17;0.60;;;8.40;96.70;;;;;;5075068;28;20051;-80
2020/12/01 08:03:11;;;;;;;4.10;0.80;;;8.40;96.70;;;;;;5076236;28;20530;-79
2020/12/01 08:05:37;;;;;;;8.50;0.73;;;8.30;96.70;;;;;;5074773;28;20032;-80
2020/12/01 08:08:02;;;;;;;2.93;0.70;;;8.40;96.70;;;;;;5074784;28;20017;-79
2020/12/01 08:10:29;;;;;;;5.00;0.60;;;8.50;96.70;;;;;;5058094;28;20030;-80
2020/12/01 08:13:00;;;;;;;5.43;0.60;;;8.50;96.70;;;;;;5075992;28;20060;-79
2020/12/01 08:15:27;;;;;;;4.13;0.57;;;8.40;96.70;;;;;;5075903;28;20020;-79
2020/12/01 08:17:53;;;;;;;5.37;0.60;;;8.50;96.70;;;;;;5074517;28;20058;-80
2020/12/01 08:20:24;;;;;;;8.67;0.67;;;8.50;96.70;;;;;;5075773;28;20024;-79
2020/12/01 08:23:06;;;;;;;5.87;0.50;;;8.60;96.70;;;;;;5074896;28;20388;-80
2020/12/01 08:25:32;;;;;;;13.37;1.10;;;8.60;96.60;;;;;;5074510;28;20360;-78
2020/12/01 08:28:29;;;;;;;10.97;1.20;;;8.60;96.60;;;;;;5057834;28;20046;-79
2020/12/01 08:31:11;;;;;;;11.03;0.80;;;8.60;96.60;;;;;;5074841;28;20021;-79
2020/12/01 08:34:02;;;;;;;17.03;0.97;;;8.60;96.60;;;;;;5074322;28;20024;-80
2020/12/01 08:36:44;;;;;;;11.23;0.87;;;8.60;96.60;;;;;;5075538;28;20021;-81
2020/12/01 08:39:21;;;;;;;13.50;1.00;;;8.60;96.60;;;;;;5075476;28;20070;-79
2020/12/01 08:42:07;;;;;;;17.00;1.50;;;8.60;96.50;;;;;;5074124;28;20021;-77
2020/12/01 08:44:42;;;;;;;12.17;0.80;;;8.60;96.50;;;;;;5074006;28;20041;-80
2020/12/01 08:47:08;;;;;;;10.63;0.80;;;8.60;96.50;;;;;;5074019;28;20012;-78
2020/12/01 08:49:44;;;;;;;10.10;1.30;;;8.60;96.80;;;;;;5075367;28;20021;-79
2020/12/01 08:52:35;;;;;;;5.90;0.83;;;8.60;96.70;;;;;;5075292;28;20033;-79
2020/12/01 08:55:05;;;;;;;13.03;1.50;;;8.60;96.50;;;;;;5075349;28;20515;-81
2020/12/01 08:57:38;;;;;;;8.57;0.97;;;8.60;96.50;;;;;;5075181;28;20036;-80
2020/12/01 09:00:14;;;;;;;14.10;1.40;;;8.70;96.50;;;;;;5075454;28;20112;-79
2020/12/01 09:02:43;;;;;;;15.40;1.43;;;8.70;96.50;;;;;;5075078;28;20028;-81
2020/12/01 09:05:29;;;;;;;22.93;1.97;;;8.70;96.50;;;;;;5075127;28;20086;-80
2020/12/01 09:08:05;;;;;;;16.37;1.33;;;8.70;96.50;;;;;;5074972;28;20472;-74
2020/12/01 09:10:33;;;;;;;7.43;0.80;;;8.80;96.60;;;;;;5073730;28;20020;-74
2020/12/01 09:13:25;;;;;;;10.70;1.23;;;8.80;96.60;;;;;;5073693;28;20099;-73
2020/12/01 09:16:21;;;;;;;11.50;1.10;;;8.80;96.60;;;;;;5073432;28;20036;-79
2020/12/01 09:19:13;;;;;;;11.97;1.00;;;8.80;96.60;;;;;;5073899;28;20510;-79
2020/12/01 09:21:53;;;;;;;14.70;1.17;;;8.90;96.60;;;;;;5074516;28;20045;-80
2020/12/01 09:24:23;;;;;;;8.77;1.13;;;8.90;96.90;;;;;;5074729;28;20020;-79
2020/12/01 09:27:18;;;;;;;15.30;1.77;;;8.90;96.60;;;;;;5074588;28;20064;-81
2020/12/01 09:29:47;;;;;;;19.13;1.27;;;8.90;96.50;;;;;;5068986;28;20036;-79
2020/12/01 09:32:22;;;;;;;18.60;2.53;;;8.90;96.50;;;;;;5073229;28;20066;-80
2020/12/01 09:34:47;;;;;;;20.93;1.87;;;8.90;96.50;;;;;;5074332;28;20070;-79
2020/12/01 09:37:14;;;;;;;18.93;2.07;;;9.00;96.50;;;;;;5073084;28;20116;-79
2020/12/01 09:39:39;;;;;;;14.83;1.40;;;8.90;96.50;;;;;;5056592;28;20029;-79
2020/12/01 09:47:23;;;;;;;19.53;1.17;;;8.90;96.50;;;;;;5073344;28;20045;-73
2020/12/01 09:49:49;;;;;;;12.17;1.30;;;9.00;96.50;;;;;;5057243;28;20055;-74
2020/12/01 09:52:20;;;;;;;17.47;1.43;;;9.00;96.50;;;;;;5056052;28;20472;-74
2020/12/01 09:54:57;;;;;;;16.03;1.87;;;9.00;96.50;;;;;;5073808;28;20029;-74
2020/12/01 09:57:49;;;;;;;15.53;2.13;;;9.00;96.50;;;;;;5057506;28;20090;-74
2020/12/01 10:04:35;;;;;;;12.13;1.58;;;9.10;96.50;;;;;;5072959;28;20412;-74
2020/12/01 10:36:22;;;;;;;12.02;1.50;;;9.40;96.30;;;;;;5053584;28;20079;-74
2020/12/01 10:38:48;;;;;;;13.30;1.33;;;9.40;96.30;;;;;;5052114;28;20029;-74
2020/12/01 10:41:13;;;;;;;12.23;1.50;;;9.40;96.20;;;;;;5035269;28;20388;-73
2020/12/01 10:43:39;;;;;;;14.83;1.47;;;9.30;96.50;;;;;;5035383;28;20377;-74
2020/12/01 10:46:07;;;;;;;7.37;1.07;;;9.40;96.20;;;;;;5052321;28;20048;-74
2020/12/01 10:48:33;;;;;;;16.53;1.43;;;9.40;96.20;;;;;;5052042;28;20025;-74
2020/12/01 10:50:58;;;;;;;11.13;1.00;;;9.40;96.20;;;;;;5035691;28;20035;-73
2020/12/01 10:53:24;;;;;;;11.10;1.87;;;9.50;96.20;;;;;;5018323;28;20033;-74
2020/12/01 10:55:49;;;;;;;15.27;1.40;;;9.50;96.20;;;;;;5053235;28;20037;-80
2020/12/01 10:58:15;;;;;;;14.53;1.30;;;9.50;96.20;;;;;;5053203;28;20037;-79
2020/12/01 11:00:41;;;;;;;19.20;2.07;;;9.60;96.10;;;;;;5053465;28;20040;-81
2020/12/01 11:03:06;;;;;;;17.90;1.73;;;9.50;96.00;;;;;;5053106;28;20116;-81
2020/12/01 11:05:32;;;;;;;10.87;1.17;;;9.50;96.00;;;;;;5052949;28;20021;-77
2020/12/01 11:07:58;;;;;;;15.83;0.93;;;9.50;96.10;;;;;;5035244;28;20050;-80
2020/12/01 11:10:25;;;;;;;13.43;1.63;;;9.50;96.10;;;;;;5052992;28;20055;-73
2020/12/01 11:12:50;;;;;;;14.87;1.57;;;9.60;96.00;;;;;;5051870;28;20095;-73
2020/12/01 11:15:17;;;;;;;14.83;1.77;;;9.70;96.10;;;;;;5052080;28;20477;-72
2020/12/01 11:17:42;;;;;;;12.17;1.03;;;9.70;96.00;;;;;;5052939;28;20083;-73
2020/12/01 11:20:11;;;;;;;16.07;1.60;;;9.80;96.20;;;;;;5051827;28;20476;-73
2020/12/01 11:22:36;;;;;;;11.40;1.20;;;9.80;96.10;;;;;;5061816;28;20074;-73
2020/12/01 11:25:03;;;;;;;13.73;0.93;;;9.90;96.20;;;;;;5071432;28;20028;-74
2020/12/01 11:27:28;;;;;;;15.07;1.50;;;10.00;96.10;;;;;;5071753;28;20031;-80
2020/12/01 11:29:54;;;;;;;17.43;1.50;;;10.00;96.10;;;;;;5071607;28;20148;-79
2020/12/01 11:32:20;;;;;;;15.10;1.30;;;10.00;96.20;;;;;;5071526;28;20087;-79
2020/12/01 11:34:45;;;;;;;11.17;1.23;;;10.20;96.20;;;;;;5054876;28;20032;-79
2020/12/01 11:37:11;;;;;;;17.30;1.40;;;10.20;96.10;;;;;;5054805;28;20399;-79
2020/12/01 11:39:37;;;;;;;16.13;1.43;;;10.20;95.90;;;;;;5072849;28;20112;-81
2020/12/01 11:42:02;;;;;;;9.17;1.00;;;10.20;95.80;;;;;;5071026;28;20040;-78
2020/12/01 11:44:28;;;;;;;4.93;0.67;;;10.20;95.70;;;;;;5071158;28;20186;-80
2020/12/01 11:46:56;;;;;;;9.97;0.90;;;10.10;95.70;;;;;;5059065;28;20409;-79
2020/12/01 11:49:22;;;;;;;10.53;1.67;;;10.10;95.70;;;;;;5051381;28;20074;-81
2020/12/01 11:51:51;;;;;;;12.90;1.10;;;10.10;95.60;;;;;;5053180;28;20079;-82
2020/12/01 11:54:18;;;;;;;11.03;0.90;;;10.10;95.60;;;;;;5054753;28;20028;-80
2020/12/01 11:56:44;;;;;;;15.20;1.23;;;10.10;95.60;;;;;;5070500;28;20024;-80
2020/12/01 11:59:10;;;;;;;12.30;1.33;;;10.10;95.50;;;;;;5074119;28;20027;-82
2020/12/01 12:01:45;;;;;;;8.00;1.03;;;10.10;95.40;;;;;;5073632;28;20036;-80
2020/12/01 12:04:11;;;;;;;11.50;1.57;;;10.10;95.40;;;;;;5057651;28;20430;-79
2020/12/01 12:06:37;;;;;;;12.27;1.80;;;10.10;95.50;;;;;;5073630;28;20031;-79
2020/12/01 12:09:07;;;;;;;8.97;1.20;;;10.10;95.40;;;;;;5076077;28;20112;-80
2020/12/01 12:11:33;;;;;;;14.37;1.57;;;10.20;95.40;;;;;;5076112;28;20074;-79
2020/12/01 12:14:00;;;;;;;13.20;1.20;;;10.10;95.30;;;;;;5074724;28;20073;-81
2020/12/01 12:16:26;;;;;;;12.13;0.90;;;10.10;95.30;;;;;;5075153;28;20122;-81
2020/12/01 12:18:51;;;;;;;8.73;1.37;;;10.10;95.30;;;;;;5073717;28;20050;-79
2020/12/01 12:21:20;;;;;;;9.90;1.30;;;10.10;95.30;;;;;;5041351;28;20024;-79
2020/12/01 12:23:46;;;;;;;10.10;1.20;;;10.10;95.20;;;;;;5075158;28;20029;-79
2020/12/01 12:26:12;;;;;;;7.47;1.00;;;10.20;95.10;;;;;;5074634;28;20031;-79
2020/12/01 12:28:38;;;;;;;7.13;1.10;;;10.20;95.10;;;;;;5075765;28;20021;-78
2020/12/01 12:31:04;;;;;;;6.90;0.97;;;10.20;95.20;;;;;;5074628;28;20525;-80
2020/12/01 12:33:30;;;;;;;6.57;0.90;;;10.20;95.20;;;;;;5074512;28;20175;-78
2020/12/01 12:35:57;;;;;;;12.20;1.20;;;10.20;95.10;;;;;;5075574;28;20116;-80
2020/12/01 12:38:23;;;;;;;9.17;1.00;;;10.20;95.10;;;;;;5075481;28;20039;-78
2020/12/01 12:40:49;;;;;;;11.03;0.90;;;10.20;95.00;;;;;;5057490;28;20028;-80
2020/12/01 12:43:15;;;;;;;13.80;1.17;;;10.30;95.00;;;;;;5057848;28;20365;-79
2020/12/01 12:45:41;;;;;;;11.57;0.90;;;10.30;95.00;;;;;;5075272;28;20047;-79
2020/12/01 12:48:07;;;;;;;6.70;0.80;;;10.30;95.10;;;;;;5074146;28;20024;-80
2020/12/01 12:50:33;;;;;;;11.30;0.90;;;10.50;95.30;;;;;;5074454;28;20048;-81
2020/12/01 12:52:59;;;;;;;8.43;1.63;;;10.70;95.90;;;;;;5057235;28;20479;-79
2020/12/01 12:55:24;;;;;;;14.13;1.10;;;11.10;96.90;;;;;;5057382;28;20392;-79
2020/12/01 12:57:50;;;;;;;10.88;1.20;;;11.30;96.90;;;;;;5057185;28;20024;-81
2020/12/01 13:00:16;;;;;;;11.80;1.15;;;11.40;96.70;;;;;;5040681;28;20028;-78
2020/12/01 13:02:41;;;;;;;7.07;0.75;;;11.50;96.30;;;;;;5057237;28;20124;-78
2020/12/01 13:05:07;;;;;;;10.20;0.80;;;11.40;96.00;;;;;;5075012;28;20036;-72
2020/12/01 13:07:33;;;;;;;11.20;1.27;;;11.50;95.40;;;;;;5074711;28;20025;-72
2020/12/01 13:09:59;;;;;;;9.18;1.55;;;11.40;95.20;;;;;;5074017;28;20364;-72
2020/12/01 13:12:24;;;;;;;9.00;1.13;;;11.40;95.20;;;;;;5073565;28;20119;-72
2020/12/01 13:14:50;;;;;;;10.40;1.00;;;11.40;95.20;;;;;;5056786;28;20162;-71
2020/12/01 13:17:16;;;;;;;8.45;0.68;;;11.40;95.10;;;;;;5073476;28;20029;-71
2020/12/01 13:19:41;;;;;;;12.23;1.65;;;11.40;95.00;;;;;;5073430;28;20040;-72
2020/12/01 13:22:07;;;;;;;10.10;0.80;;;11.50;95.50;;;;;;5073047;28;20029;-72
2020/12/01 13:24:33;;;;;;;11.50;1.00;;;11.80;96.20;;;;;;5074364;28;20391;-72
2020/12/01 13:26:59;;;;;;;7.80;1.17;;;12.10;96.30;;;;;;5056450;28;20017;-72
2020/12/01 13:29:25;;;;;;;5.75;0.63;;;12.30;96.20;;;;;;5074559;28;20555;-73
2020/12/01 13:31:50;;;;;;;12.75;1.27;;;12.40;95.70;;;;;;5040149;28;20028;-73
2020/12/01 13:34:16;;;;;;;10.43;0.90;;;12.30;94.80;;;;;;5074249;28;20039;-74
2020/12/01 13:36:43;;;;;;;11.70;1.08;;;12.10;94.50;;;;;;5072876;28;20036;-75
2020/12/01 13:39:09;;;;;;;7.50;1.02;;;12.20;94.50;;;;;;5056549;28;20029;-74
2020/12/01 13:41:35;;;;;;;7.30;0.85;;;12.40;95.10;;;;;;5052256;28;20643;-75
2020/12/01 13:44:01;;;;;;;8.88;0.90;;;12.80;96.00;;;;;;5053563;28;20037;-75
2020/12/01 13:46:26;;;;;;;7.70;1.00;;;13.40;96.80;;;;;;5052836;28;20022;-75
2020/12/01 13:48:52;;;;;;;8.98;0.98;;;13.70;96.60;;;;;;5036022;28;20017;-74